Time;durP1;ratioP1;P1;durP2;ratioP2;P2;SDS_P1;SDS_P2;PMS_P1;PMS_P2;Temp;Humidity;BMP_temperature;BMP_pressure;BME280_temperature;BME280_humidity;BME280_pressure;Samples;Min_cycle;Max_cycle;Signal;HPM_P1;HPM_P2
2023/09/07 00:00:25;;;;;;;13.15;11.75;;;16.70;99.90;;;;;;2091405;28;20028;-73
2023/09/07 00:01:25;;;;;;;13.70;11.38;;;16.70;99.90;;;;;;2094131;28;20081;-73
2023/09/07 00:02:26;;;;;;;13.80;11.55;;;16.70;99.90;;;;;;2089465;28;20045;-73
2023/09/07 00:03:26;;;;;;;13.15;11.75;;;16.70;99.90;;;;;;2096008;28;20246;-73
2023/09/07 00:04:27;;;;;;;14.23;11.57;;;16.70;99.90;;;;;;2094408;28;20123;-73
2023/09/07 00:05:28;;;;;;;13.65;11.50;;;16.70;99.90;;;;;;2090387;28;20029;-73
2023/09/07 00:06:28;;;;;;;15.15;11.85;;;16.70;99.90;;;;;;2092396;28;20254;-74
2023/09/07 00:07:29;;;;;;;12.70;11.23;;;16.70;99.90;;;;;;2090769;28;20483;-73
2023/09/07 00:08:30;;;;;;;14.02;11.80;;;16.70;99.90;;;;;;2095806;28;20023;-73
2023/09/07 00:09:30;;;;;;;14.98;11.95;;;16.70;99.90;;;;;;2096480;28;20012;-75
2023/09/07 00:10:35;;;;;;;12.98;11.57;;;16.70;99.90;;;;;;2096462;28;20475;-74
2023/09/07 00:11:35;;;;;;;14.55;11.52;;;16.70;99.90;;;;;;2090451;28;20032;-74
2023/09/07 00:12:39;;;;;;;13.23;10.98;;;16.70;99.90;;;;;;2088650;28;20025;-74
2023/09/07 00:13:39;;;;;;;15.32;11.82;;;16.70;99.90;;;;;;2095195;28;20024;-73
2023/09/07 00:14:40;;;;;;;16.42;11.75;;;16.70;99.90;;;;;;2092339;28;20388;-73
2023/09/07 00:15:41;;;;;;;17.75;11.70;;;16.70;99.90;;;;;;2096335;28;20020;-73
2023/09/07 00:16:41;;;;;;;14.43;11.55;;;16.70;99.90;;;;;;2092928;28;20040;-73
2023/09/07 00:17:42;;;;;;;15.43;11.85;;;16.70;99.90;;;;;;2092471;28;20107;-73
2023/09/07 00:18:42;;;;;;;13.95;11.45;;;16.70;99.90;;;;;;2086682;28;20020;-73
2023/09/07 00:19:44;;;;;;;14.35;12.02;;;16.70;99.90;;;;;;2092259;28;20107;-73
2023/09/07 00:20:44;;;;;;;13.63;11.23;;;16.70;99.90;;;;;;2094439;28;20111;-73
2023/09/07 00:21:45;;;;;;;14.35;11.65;;;16.70;99.90;;;;;;2095592;28;20024;-73
2023/09/07 00:22:45;;;;;;;13.65;11.02;;;16.70;99.90;;;;;;2089852;28;20090;-74
2023/09/07 00:23:46;;;;;;;12.77;11.13;;;16.70;99.90;;;;;;2095755;28;20032;-74
2023/09/07 00:24:46;;;;;;;13.73;11.32;;;16.70;99.90;;;;;;2093197;28;20033;-74
2023/09/07 00:25:47;;;;;;;12.57;10.70;;;16.70;99.90;;;;;;2093235;28;20059;-73
2023/09/07 00:26:48;;;;;;;13.52;11.05;;;16.70;99.90;;;;;;2093396;28;20082;-73
2023/09/07 00:27:48;;;;;;;13.65;11.80;;;16.70;99.90;;;;;;2094790;28;20387;-73
2023/09/07 00:28:49;;;;;;;16.23;11.98;;;16.60;99.90;;;;;;2091454;28;20028;-73
2023/09/07 00:29:49;;;;;;;13.75;11.15;;;16.60;99.90;;;;;;2083044;28;20041;-73
2023/09/07 00:30:50;;;;;;;12.98;11.18;;;16.60;99.90;;;;;;2079277;28;20037;-73
2023/09/07 00:31:51;;;;;;;14.60;11.73;;;16.60;99.90;;;;;;2067611;28;20030;-73
2023/09/07 00:32:51;;;;;;;14.40;10.98;;;16.60;99.90;;;;;;2067515;28;20029;-74
2023/09/07 00:33:52;;;;;;;14.20;11.40;;;16.60;99.90;;;;;;2092039;28;20020;-74
2023/09/07 00:34:52;;;;;;;12.80;10.90;;;16.60;99.90;;;;;;2089256;28;20114;-74
2023/09/07 00:35:53;;;;;;;15.73;11.55;;;16.60;99.90;;;;;;2088835;28;20025;-73
2023/09/07 00:36:54;;;;;;;14.60;11.45;;;16.50;99.90;;;;;;2092950;28;20024;-74
2023/09/07 00:37:54;;;;;;;13.55;11.20;;;16.60;99.90;;;;;;2091989;28;20070;-73
2023/09/07 00:38:55;;;;;;;14.35;11.38;;;16.60;99.90;;;;;;2090325;28;20235;-74
2023/09/07 00:39:55;;;;;;;14.00;10.60;;;16.50;99.90;;;;;;2095542;28;20024;-73
2023/09/07 00:40:56;;;;;;;13.60;11.15;;;16.50;99.90;;;;;;2092346;28;20917;-74
2023/09/07 00:41:57;;;;;;;12.95;10.98;;;16.50;99.90;;;;;;2083201;28;20403;-73
2023/09/07 00:42:59;;;;;;;14.63;11.27;;;16.50;99.90;;;;;;2083731;28;20029;-74
2023/09/07 00:43:59;;;;;;;15.13;11.45;;;16.50;99.90;;;;;;2086513;28;20100;-73
2023/09/07 00:45:00;;;;;;;13.18;10.77;;;16.50;99.90;;;;;;2079259;28;20083;-74
2023/09/07 00:46:00;;;;;;;12.55;10.85;;;16.50;99.90;;;;;;2082325;28;20589;-73
2023/09/07 00:47:01;;;;;;;12.77;11.43;;;16.50;99.90;;;;;;2076182;28;20366;-74
2023/09/07 00:48:02;;;;;;;16.88;11.85;;;16.50;99.90;;;;;;2072656;28;20077;-74
2023/09/07 00:49:04;;;;;;;12.63;11.15;;;16.50;99.90;;;;;;2078806;28;20076;-74
2023/09/07 00:50:05;;;;;;;13.30;11.50;;;16.50;99.90;;;;;;2081536;28;20024;-73
2023/09/07 00:51:08;;;;;;;11.95;10.48;;;16.50;99.90;;;;;;2077912;28;20523;-73
2023/09/07 00:52:12;;;;;;;13.63;11.48;;;16.40;99.90;;;;;;2087687;28;20495;-74
2023/09/07 00:53:14;;;;;;;13.02;10.90;;;16.40;99.90;;;;;;2085648;28;20024;-74
2023/09/07 00:54:16;;;;;;;15.45;11.32;;;16.40;99.90;;;;;;2082029;28;20017;-74
2023/09/07 00:55:17;;;;;;;15.73;11.80;;;16.40;99.90;;;;;;2083840;28;20033;-73
2023/09/07 00:56:18;;;;;;;12.35;10.75;;;16.40;99.90;;;;;;2087416;28;20101;-73
2023/09/07 00:57:18;;;;;;;12.65;11.23;;;16.40;99.90;;;;;;2081829;28;20021;-73
2023/09/07 00:58:20;;;;;;;13.52;11.18;;;16.40;99.90;;;;;;2087073;28;20034;-72
2023/09/07 00:59:21;;;;;;;12.48;11.18;;;16.30;99.90;;;;;;2089672;28;20021;-71
2023/09/07 01:00:22;;;;;;;11.95;10.73;;;16.30;99.90;;;;;;2087752;28;20520;-72
2023/09/07 01:01:23;;;;;;;12.77;10.90;;;16.30;99.90;;;;;;2089647;28;20376;-73
2023/09/07 01:02:24;;;;;;;12.98;11.55;;;16.30;99.90;;;;;;2094331;28;20060;-74
2023/09/07 01:03:24;;;;;;;14.38;11.40;;;16.30;99.90;;;;;;2092715;28;20032;-72
2023/09/07 01:04:25;;;;;;;13.43;11.10;;;16.30;99.90;;;;;;2092428;28;20067;-73
2023/09/07 01:05:41;;;;;;;13.13;11.32;;;16.30;99.90;;;;;;2079087;28;20029;-72
2023/09/07 01:06:51;;;;;;;14.38;11.27;;;16.30;99.90;;;;;;2087547;28;20205;-72
2023/09/07 01:07:57;;;;;;;13.57;11.68;;;16.30;99.90;;;;;;2076916;28;20076;-73
2023/09/07 01:09:04;;;;;;;14.48;11.00;;;16.30;99.90;;;;;;2073220;28;20030;-71
2023/09/07 01:10:06;;;;;;;12.45;11.05;;;16.30;99.90;;;;;;2094765;28;20033;-71
2023/09/07 01:11:14;;;;;;;13.57;11.30;;;16.20;99.90;;;;;;2093631;28;20218;-71
2023/09/07 01:12:15;;;;;;;14.90;11.93;;;16.20;99.90;;;;;;2085492;28;20028;-71
2023/09/07 01:13:16;;;;;;;13.95;12.15;;;16.20;99.90;;;;;;2092573;28;20021;-71
2023/09/07 01:14:17;;;;;;;14.15;11.88;;;16.20;99.90;;;;;;2093706;28;20027;-72
2023/09/07 01:15:17;;;;;;;14.60;11.68;;;16.20;99.90;;;;;;2088261;28;20111;-72
2023/09/07 01:16:20;;;;;;;15.65;12.15;;;16.20;99.90;;;;;;2093054;28;20070;-72
2023/09/07 01:17:22;;;;;;;14.77;11.70;;;16.20;99.90;;;;;;2091569;28;20195;-72
2023/09/07 01:18:24;;;;;;;13.23;11.88;;;16.20;99.90;;;;;;2085590;28;20114;-72
2023/09/07 01:19:25;;;;;;;14.40;11.30;;;16.20;99.90;;;;;;2089389;28;20538;-72
2023/09/07 01:20:26;;;;;;;14.50;11.88;;;16.10;99.90;;;;;;2094886;28;20023;-72
2023/09/07 01:21:33;;;;;;;16.85;11.73;;;16.10;99.90;;;;;;2085504;28;20029;-72
2023/09/07 01:22:35;;;;;;;13.40;11.48;;;16.10;99.90;;;;;;2084461;28;20025;-72
2023/09/07 01:23:37;;;;;;;13.30;11.90;;;16.10;99.90;;;;;;2083602;28;20036;-73
2023/09/07 01:24:39;;;;;;;13.30;11.60;;;16.10;99.90;;;;;;2083994;28;20487;-72
2023/09/07 01:25:41;;;;;;;15.43;11.70;;;16.10;99.90;;;;;;2084219;28;20583;-72
2023/09/07 01:26:43;;;;;;;13.63;11.15;;;16.10;99.90;;;;;;2087315;28;20477;-74
2023/09/07 01:27:44;;;;;;;14.90;11.80;;;16.10;99.90;;;;;;2088056;28;20132;-71
2023/09/07 01:28:45;;;;;;;14.05;11.93;;;16.10;99.90;;;;;;2095242;28;20083;-72
2023/09/07 01:29:45;;;;;;;13.07;11.27;;;16.10;99.90;;;;;;2100220;28;20108;-71
2023/09/07 01:30:46;;;;;;;15.40;11.93;;;16.10;99.90;;;;;;2085248;28;20101;-72
2023/09/07 01:31:47;;;;;;;14.40;12.23;;;16.10;99.90;;;;;;2092419;28;20039;-71
2023/09/07 01:32:49;;;;;;;13.02;11.52;;;16.00;99.90;;;;;;2079456;28;20146;-72
2023/09/07 01:33:50;;;;;;;14.00;11.32;;;16.00;99.90;;;;;;2080760;28;20013;-72
2023/09/07 01:34:50;;;;;;;13.48;11.65;;;16.00;99.90;;;;;;2079576;28;20030;-71
2023/09/07 01:35:51;;;;;;;15.55;11.85;;;15.90;99.90;;;;;;2092327;28;20035;-71
2023/09/07 01:36:51;;;;;;;16.92;12.07;;;15.90;99.90;;;;;;2091777;28;20020;-72
2023/09/07 01:37:52;;;;;;;14.45;12.27;;;15.90;99.90;;;;;;2092152;28;20127;-72
2023/09/07 01:38:53;;;;;;;13.32;11.60;;;15.90;99.90;;;;;;2093010;28;20043;-72
2023/09/07 01:39:53;;;;;;;14.38;11.45;;;15.90;99.90;;;;;;2092667;28;20036;-72
2023/09/07 01:40:54;;;;;;;13.48;11.98;;;15.90;99.90;;;;;;2093282;28;20029;-72
2023/09/07 01:41:54;;;;;;;14.63;12.35;;;15.90;99.90;;;;;;2094016;28;20077;-72
2023/09/07 01:42:55;;;;;;;13.32;11.77;;;15.90;99.90;;;;;;2091831;28;20222;-72
2023/09/07 01:43:55;;;;;;;13.82;12.35;;;15.80;99.90;;;;;;2085288;28;20032;-72
2023/09/07 01:44:56;;;;;;;14.15;12.00;;;15.80;99.90;;;;;;2085816;28;20029;-72
2023/09/07 01:45:57;;;;;;;15.10;12.45;;;15.80;99.90;;;;;;2095634;28;20020;-72
2023/09/07 01:46:59;;;;;;;13.75;12.35;;;15.80;99.90;;;;;;2093377;28;20074;-72
2023/09/07 01:47:59;;;;;;;14.55;11.98;;;15.80;99.90;;;;;;2089651;28;20686;-72
2023/09/07 01:49:00;;;;;;;13.95;11.93;;;15.80;99.90;;;;;;2094832;28;20115;-72
2023/09/07 01:50:01;;;;;;;18.75;12.80;;;15.80;99.90;;;;;;2077121;28;20076;-73
2023/09/07 01:51:02;;;;;;;14.38;11.85;;;15.80;99.90;;;;;;2078628;28;20033;-74
2023/09/07 01:52:03;;;;;;;15.23;11.80;;;15.80;99.90;;;;;;2091944;28;20507;-73
2023/09/07 01:53:04;;;;;;;14.90;12.43;;;15.80;99.90;;;;;;2089064;28;20025;-73
2023/09/07 01:54:06;;;;;;;15.48;12.25;;;15.80;99.90;;;;;;2092809;28;20029;-74
2023/09/07 01:55:07;;;;;;;14.30;12.20;;;15.80;99.90;;;;;;2083893;28;20523;-73
2023/09/07 01:56:08;;;;;;;12.90;11.50;;;15.80;99.90;;;;;;2089216;28;20548;-73
2023/09/07 01:57:09;;;;;;;14.30;12.10;;;15.80;99.90;;;;;;2085977;28;20025;-73
2023/09/07 01:58:10;;;;;;;15.48;13.30;;;15.80;99.90;;;;;;2081134;28;20051;-72
2023/09/07 01:59:11;;;;;;;16.80;12.57;;;15.70;99.90;;;;;;2089798;28;20499;-73
2023/09/07 02:00:12;;;;;;;14.00;12.50;;;15.70;99.90;;;;;;2094677;28;20027;-73
2023/09/07 02:01:26;;;;;;;14.45;12.43;;;15.70;99.90;;;;;;2079901;28;20112;-72
2023/09/07 02:02:27;;;;;;;;;;;15.80;99.90;;;;;;2084844;28;20029;-75
2023/09/07 02:03:27;;;;;;;17.80;12.38;;;15.70;99.90;;;;;;2079915;28;19912;-73
2023/09/07 02:04:28;;;;;;;15.63;12.20;;;15.70;99.90;;;;;;2081015;28;20024;-73
2023/09/07 02:05:28;;;;;;;13.57;11.80;;;15.70;99.90;;;;;;2085096;28;20012;-73
2023/09/07 02:06:29;;;;;;;14.60;12.27;;;15.70;99.90;;;;;;2092942;28;20539;-73
2023/09/07 02:07:30;;;;;;;14.32;12.30;;;15.70;99.90;;;;;;2087298;28;20029;-73
2023/09/07 02:08:30;;;;;;;14.93;12.07;;;15.70;99.90;;;;;;2085390;28;20024;-73
2023/09/07 02:09:31;;;;;;;17.00;12.10;;;15.70;99.90;;;;;;2093496;28;20012;-73
2023/09/07 02:10:33;;;;;;;15.75;12.52;;;15.60;99.90;;;;;;2086672;28;20029;-71
2023/09/07 02:11:33;;;;;;;14.27;11.90;;;15.60;99.90;;;;;;2081333;28;20028;-71
2023/09/07 02:12:34;;;;;;;17.13;11.90;;;15.60;99.90;;;;;;2088820;28;20052;-71
2023/09/07 02:13:35;;;;;;;13.55;12.07;;;15.60;99.90;;;;;;2088794;28;20036;-71
2023/09/07 02:14:35;;;;;;;14.80;12.00;;;15.60;99.90;;;;;;2091250;28;20036;-73
2023/09/07 02:15:39;;;;;;;15.60;12.48;;;15.60;99.90;;;;;;2093207;28;20567;-72
2023/09/07 02:16:39;;;;;;;13.93;11.88;;;15.60;99.90;;;;;;2088149;28;20115;-72
2023/09/07 02:17:40;;;;;;;13.25;11.85;;;15.50;99.90;;;;;;2091663;28;20029;-72
2023/09/07 02:18:45;;;;;;;16.13;12.07;;;15.60;99.90;;;;;;2090515;28;20513;-71
2023/09/07 02:19:46;;;;;;;14.20;11.85;;;15.50;99.90;;;;;;2083880;28;20523;-71
2023/09/07 02:20:46;;;;;;;13.70;12.20;;;15.50;99.90;;;;;;2085828;28;20140;-72
2023/09/07 02:21:47;;;;;;;13.60;12.20;;;15.50;99.90;;;;;;2083218;28;20075;-72
2023/09/07 02:22:47;;;;;;;14.75;11.93;;;15.50;99.90;;;;;;2082998;28;20025;-72
2023/09/07 02:23:48;;;;;;;13.85;11.77;;;15.50;99.90;;;;;;2083135;28;20039;-71
2023/09/07 02:24:49;;;;;;;14.38;12.25;;;15.40;99.90;;;;;;2087808;28;20124;-71
2023/09/07 02:25:49;;;;;;;13.98;11.88;;;15.40;99.90;;;;;;2091438;28;20020;-72
2023/09/07 02:26:50;;;;;;;13.40;12.00;;;15.40;99.90;;;;;;2084444;28;20389;-72
2023/09/07 02:27:51;;;;;;;13.38;11.77;;;15.40;99.90;;;;;;2090222;28;20478;-72
2023/09/07 02:28:51;;;;;;;14.20;12.00;;;15.40;99.90;;;;;;2093936;28;20004;-72
2023/09/07 02:29:52;;;;;;;15.13;12.27;;;15.40;99.90;;;;;;2089111;28;20649;-72
2023/09/07 02:30:52;;;;;;;14.18;11.70;;;15.40;99.90;;;;;;2080896;28;20034;-72
2023/09/07 02:31:53;;;;;;;18.73;12.27;;;15.30;99.90;;;;;;2083027;28;20566;-72
2023/09/07 02:32:54;;;;;;;16.65;12.02;;;15.30;99.90;;;;;;2089004;28;20016;-72
2023/09/07 02:33:55;;;;;;;14.30;11.95;;;15.30;99.90;;;;;;2088855;28;20101;-72
2023/09/07 02:34:56;;;;;;;14.10;11.95;;;15.20;99.90;;;;;;2091111;28;20082;-72
2023/09/07 02:35:57;;;;;;;15.25;11.88;;;15.20;99.90;;;;;;2077288;28;20527;-71
2023/09/07 02:36:58;;;;;;;15.73;12.70;;;15.20;99.90;;;;;;2088035;28;20025;-71
2023/09/07 02:38:00;;;;;;;15.55;12.43;;;15.20;99.90;;;;;;2090795;28;20211;-71
2023/09/07 02:39:01;;;;;;;15.80;12.32;;;15.20;99.90;;;;;;2078295;28;20476;-71
2023/09/07 02:40:06;;;;;;;13.07;11.70;;;15.20;99.90;;;;;;2078773;28;20481;-71
2023/09/07 02:41:07;;;;;;;17.65;11.88;;;15.20;99.90;;;;;;2084353;28;20040;-73
2023/09/07 02:42:08;;;;;;;13.90;12.13;;;15.20;99.90;;;;;;2084032;28;20060;-72
2023/09/07 02:43:09;;;;;;;16.60;12.30;;;15.10;99.90;;;;;;2090920;28;20035;-72
2023/09/07 02:44:09;;;;;;;13.93;12.15;;;15.10;99.90;;;;;;2075874;28;20087;-71
2023/09/07 02:45:12;;;;;;;13.82;12.40;;;15.10;99.90;;;;;;2082139;28;20519;-74
2023/09/07 02:46:12;;;;;;;14.65;12.52;;;15.10;99.90;;;;;;2083387;28;20029;-71
2023/09/07 02:47:13;;;;;;;14.32;12.38;;;15.10;99.90;;;;;;2074271;28;20026;-72
2023/09/07 02:48:14;;;;;;;16.85;12.55;;;15.10;99.90;;;;;;2074290;28;20135;-72
2023/09/07 02:49:15;;;;;;;14.15;11.70;;;15.10;99.90;;;;;;2078629;28;20143;-72
2023/09/07 02:50:17;;;;;;;14.50;12.55;;;15.10;99.90;;;;;;2089803;28;20473;-72
2023/09/07 02:51:18;;;;;;;15.23;12.55;;;15.00;99.90;;;;;;2083236;28;20025;-72
2023/09/07 02:52:18;;;;;;;15.60;12.07;;;15.00;99.90;;;;;;2082538;28;20163;-72
2023/09/07 02:53:19;;;;;;;13.18;11.77;;;15.00;99.90;;;;;;2074479;28;20021;-72
2023/09/07 02:54:20;;;;;;;15.88;13.00;;;15.00;99.90;;;;;;2079961;28;20032;-73
2023/09/07 02:55:20;;;;;;;14.35;12.82;;;15.00;99.90;;;;;;2095034;28;20020;-73
2023/09/07 02:56:21;;;;;;;15.20;12.73;;;15.00;99.90;;;;;;2093736;28;20394;-72
2023/09/07 02:57:22;;;;;;;17.17;12.77;;;15.00;99.90;;;;;;2093381;28;20078;-73
2023/09/07 02:58:23;;;;;;;15.32;12.07;;;15.00;99.90;;;;;;2084165;28;20035;-72
2023/09/07 02:59:24;;;;;;;14.43;12.18;;;15.00;99.90;;;;;;2089037;28;20083;-72
2023/09/07 03:00:25;;;;;;;14.63;12.35;;;14.90;99.90;;;;;;2083216;28;20020;-73
2023/09/07 03:01:26;;;;;;;16.02;12.98;;;14.90;99.90;;;;;;2083529;28;20021;-72
2023/09/07 03:02:28;;;;;;;15.52;12.57;;;14.90;99.90;;;;;;2085662;28;20041;-73
2023/09/07 03:03:29;;;;;;;15.35;12.65;;;14.90;99.90;;;;;;2093539;28;20113;-72
2023/09/07 03:04:30;;;;;;;17.45;13.00;;;14.90;99.90;;;;;;2086860;28;20025;-73
2023/09/07 03:05:31;;;;;;;15.38;12.43;;;14.90;99.90;;;;;;2080918;28;20040;-72
2023/09/07 03:06:32;;;;;;;17.60;12.90;;;14.90;99.90;;;;;;2076480;28;20025;-72
2023/09/07 03:07:33;;;;;;;17.02;12.48;;;14.90;99.90;;;;;;2084083;28;20021;-72
2023/09/07 03:08:34;;;;;;;17.38;12.77;;;14.90;99.90;;;;;;2084345;28;20025;-72
2023/09/07 03:09:35;;;;;;;14.70;12.40;;;14.90;99.90;;;;;;2086524;28;20059;-72
2023/09/07 03:10:39;;;;;;;13.75;12.27;;;14.90;99.90;;;;;;2093520;28;20040;-72
2023/09/07 03:11:40;;;;;;;14.95;12.82;;;14.90;99.90;;;;;;2080921;28;20426;-72
2023/09/07 03:12:42;;;;;;;15.15;12.68;;;14.90;99.90;;;;;;2083825;28;20033;-72
2023/09/07 03:13:43;;;;;;;15.02;12.70;;;14.90;99.90;;;;;;2090328;28;20050;-72
2023/09/07 03:14:44;;;;;;;16.13;12.57;;;14.80;99.90;;;;;;2090980;28;20021;-72
2023/09/07 03:15:45;;;;;;;14.65;12.90;;;14.80;99.90;;;;;;2086010;28;20029;-72
2023/09/07 03:16:50;;;;;;;16.92;12.60;;;14.80;99.90;;;;;;2075875;28;20402;-72
2023/09/07 03:17:50;;;;;;;14.85;12.88;;;14.80;99.90;;;;;;2090982;28;20117;-72
2023/09/07 03:18:51;;;;;;;15.65;12.93;;;14.80;99.90;;;;;;2078399;28;20033;-72
2023/09/07 03:19:52;;;;;;;15.98;12.95;;;14.80;99.90;;;;;;2086747;28;20115;-72
2023/09/07 03:20:56;;;;;;;14.82;13.18;;;14.80;99.90;;;;;;2083833;28;20153;-72
2023/09/07 03:21:57;;;;;;;15.25;12.68;;;14.80;99.90;;;;;;2094145;28;20027;-72
2023/09/07 03:22:58;;;;;;;14.65;13.07;;;14.80;99.90;;;;;;2094313;28;20516;-73
2023/09/07 03:23:58;;;;;;;15.82;13.13;;;14.80;99.90;;;;;;2086590;28;20021;-72
2023/09/07 03:24:59;;;;;;;16.88;13.07;;;14.80;99.90;;;;;;2094433;28;20033;-72
2023/09/07 03:26:00;;;;;;;15.02;12.50;;;14.70;99.90;;;;;;2094887;28;20036;-72
2023/09/07 03:27:01;;;;;;;15.98;12.95;;;14.80;99.90;;;;;;2076232;28;20071;-72
2023/09/07 03:28:01;;;;;;;14.52;12.95;;;14.70;99.90;;;;;;2070456;28;20084;-75
2023/09/07 03:29:03;;;;;;;16.42;12.82;;;14.70;99.90;;;;;;2082518;28;20035;-72
2023/09/07 03:30:05;;;;;;;16.13;13.07;;;14.70;99.90;;;;;;2092069;28;20554;-71
2023/09/07 03:31:06;;;;;;;15.75;13.38;;;14.70;99.90;;;;;;2081284;28;20049;-70
2023/09/07 03:32:06;;;;;;;15.43;12.88;;;14.70;99.90;;;;;;2073983;28;20042;-71
2023/09/07 03:33:07;;;;;;;16.00;13.00;;;14.70;99.90;;;;;;2076266;28;20575;-72
2023/09/07 03:34:07;;;;;;;16.67;13.73;;;14.70;99.90;;;;;;2085124;28;20503;-73
2023/09/07 03:35:09;;;;;;;15.80;13.25;;;14.70;99.90;;;;;;2092828;28;20081;-71
2023/09/07 03:36:13;;;;;;;16.75;13.27;;;14.70;99.90;;;;;;2091980;28;20109;-73
2023/09/07 03:37:14;;;;;;;15.02;12.90;;;14.60;99.90;;;;;;2082160;28;20028;-73
2023/09/07 03:38:15;;;;;;;15.90;13.50;;;14.60;99.90;;;;;;2074866;28;20127;-72
2023/09/07 03:39:18;;;;;;;17.08;13.70;;;14.60;99.90;;;;;;2078376;28;20458;-72
2023/09/07 03:40:19;;;;;;;17.02;13.48;;;14.60;99.90;;;;;;2081547;28;20025;-74
2023/09/07 03:41:19;;;;;;;16.75;13.93;;;14.60;99.90;;;;;;2083710;28;20510;-72
2023/09/07 03:42:20;;;;;;;16.15;13.20;;;14.60;99.90;;;;;;2094361;28;20086;-72
2023/09/07 03:43:21;;;;;;;14.25;12.75;;;14.60;99.90;;;;;;2083367;28;20139;-72
2023/09/07 03:44:21;;;;;;;15.65;13.25;;;14.60;99.90;;;;;;2091569;28;20024;-72
2023/09/07 03:45:22;;;;;;;17.27;13.40;;;14.60;99.90;;;;;;2086090;28;20043;-72
2023/09/07 03:46:23;;;;;;;16.58;13.48;;;14.60;99.90;;;;;;2081189;28;20146;-72
2023/09/07 03:47:28;;;;;;;15.25;13.30;;;14.60;99.90;;;;;;2088589;28;20035;-72
2023/09/07 03:48:29;;;;;;;16.48;13.07;;;14.50;99.90;;;;;;2093341;28;20110;-72
2023/09/07 03:49:30;;;;;;;18.00;13.98;;;14.60;99.90;;;;;;2082977;28;20667;-72
2023/09/07 03:50:30;;;;;;;16.65;13.20;;;14.50;99.90;;;;;;2082627;28;20430;-73
2023/09/07 03:51:31;;;;;;;16.35;13.13;;;14.50;99.90;;;;;;2079769;28;20028;-72
2023/09/07 03:52:32;;;;;;;16.90;13.70;;;14.50;99.90;;;;;;2079096;28;20026;-71
2023/09/07 03:53:34;;;;;;;16.02;13.32;;;14.50;99.90;;;;;;2084090;28;20032;-71
2023/09/07 03:54:35;;;;;;;14.65;13.00;;;14.50;99.90;;;;;;2075444;28;20452;-71
2023/09/07 03:55:43;;;;;;;14.98;13.13;;;14.50;99.90;;;;;;2078192;28;20370;-72
2023/09/07 03:56:45;;;;;;;17.92;14.30;;;14.50;99.90;;;;;;2089945;28;20035;-71
2023/09/07 03:57:46;;;;;;;16.10;13.57;;;14.50;99.90;;;;;;2081249;28;20276;-71
2023/09/07 03:58:49;;;;;;;16.98;13.20;;;14.50;99.90;;;;;;2085991;28;20464;-71
2023/09/07 03:59:50;;;;;;;17.15;13.90;;;14.40;99.90;;;;;;2083011;28;20125;-72
2023/09/07 04:00:51;;;;;;;15.70;12.88;;;14.40;99.90;;;;;;2082314;28;20523;-73
2023/09/07 04:01:53;;;;;;;18.02;13.52;;;14.40;99.90;;;;;;2078037;28;20022;-72
2023/09/07 04:02:56;;;;;;;16.48;13.35;;;14.40;99.90;;;;;;2074461;28;20087;-72
2023/09/07 04:03:56;;;;;;;15.45;13.48;;;14.40;99.90;;;;;;2085863;28;20025;-72
2023/09/07 04:04:57;;;;;;;17.10;13.35;;;14.40;99.90;;;;;;2091222;28;20435;-72
2023/09/07 04:05:57;;;;;;;17.08;13.18;;;14.40;99.90;;;;;;2085086;28;20385;-72
2023/09/07 04:06:58;;;;;;;17.55;13.60;;;14.50;99.90;;;;;;2094833;28;20025;-73
2023/09/07 04:08:00;;;;;;;17.13;13.52;;;14.50;99.90;;;;;;2088541;28;20021;-73
2023/09/07 04:09:00;;;;;;;20.88;13.88;;;14.50;99.90;;;;;;2092368;28;20028;-73
2023/09/07 04:10:01;;;;;;;20.65;14.10;;;14.50;99.90;;;;;;2083751;28;20515;-74
2023/09/07 04:11:05;;;;;;;18.73;13.38;;;14.40;99.90;;;;;;2087714;28;20063;-74
2023/09/07 04:12:06;;;;;;;17.83;12.82;;;14.40;99.90;;;;;;2080764;28;20451;-72
2023/09/07 04:13:07;;;;;;;18.50;14.10;;;14.40;99.90;;;;;;2082358;28;20029;-73
2023/09/07 04:14:10;;;;;;;16.65;13.35;;;14.40;99.90;;;;;;2092545;28;20692;-73
2023/09/07 04:15:11;;;;;;;16.98;14.10;;;14.40;99.90;;;;;;2086043;28;20017;-72
2023/09/07 04:16:11;;;;;;;20.55;14.48;;;14.40;99.90;;;;;;2091895;28;20079;-73
2023/09/07 04:17:12;;;;;;;16.92;13.25;;;14.40;99.90;;;;;;2091979;28;20483;-72
2023/09/07 04:18:15;;;;;;;20.05;13.68;;;14.40;99.90;;;;;;2086999;28;20078;-73
2023/09/07 04:19:16;;;;;;;19.17;13.65;;;14.40;99.90;;;;;;2084794;28;20036;-72
2023/09/07 04:20:17;;;;;;;18.45;13.80;;;14.40;99.90;;;;;;2087041;28;20184;-73
2023/09/07 04:21:17;;;;;;;17.08;13.35;;;14.40;99.90;;;;;;2087785;28;20020;-73
2023/09/07 04:22:18;;;;;;;22.48;13.70;;;14.40;99.90;;;;;;2080456;28;20511;-73
2023/09/07 04:23:19;;;;;;;19.90;13.32;;;14.40;99.90;;;;;;2087822;28;20028;-73
2023/09/07 04:24:19;;;;;;;21.83;13.40;;;14.30;99.90;;;;;;2088008;28;20034;-72
2023/09/07 04:25:20;;;;;;;19.98;13.05;;;14.30;99.90;;;;;;2076362;28;20710;-72
2023/09/07 04:26:21;;;;;;;18.83;13.98;;;14.30;99.90;;;;;;2096285;28;20091;-74
2023/09/07 04:27:22;;;;;;;16.42;13.45;;;14.30;99.90;;;;;;2097105;28;20024;-72
2023/09/07 04:28:22;;;;;;;17.00;13.23;;;14.40;99.90;;;;;;2089795;28;20484;-72
2023/09/07 04:29:23;;;;;;;21.25;13.75;;;14.40;99.90;;;;;;2091635;28;20020;-71
2023/09/07 04:30:24;;;;;;;20.05;13.85;;;14.40;99.90;;;;;;2075628;28;20033;-72
2023/09/07 04:31:27;;;;;;;19.45;13.70;;;14.30;99.90;;;;;;2072113;28;20585;-73
2023/09/07 04:32:28;;;;;;;19.52;13.55;;;14.30;99.90;;;;;;2075761;28;20591;-71
2023/09/07 04:33:35;;;;;;;16.67;13.73;;;14.40;99.90;;;;;;2074033;28;20021;-72
2023/09/07 04:34:36;;;;;;;18.35;13.75;;;14.40;99.90;;;;;;2092005;28;20032;-71
2023/09/07 04:35:37;;;;;;;15.98;13.55;;;14.40;99.90;;;;;;2087465;28;20064;-71
2023/09/07 04:36:37;;;;;;;18.00;13.90;;;14.40;99.90;;;;;;2083739;28;20079;-71
2023/09/07 04:37:38;;;;;;;18.75;14.25;;;14.30;99.90;;;;;;2082899;28;20679;-72
2023/09/07 04:38:39;;;;;;;16.83;13.68;;;14.40;99.90;;;;;;2063503;28;20022;-72
2023/09/07 04:39:40;;;;;;;16.15;13.48;;;14.40;99.90;;;;;;2085344;28;20017;-72
2023/09/07 04:40:41;;;;;;;18.45;13.40;;;14.30;99.90;;;;;;2093751;28;20550;-71
2023/09/07 04:41:41;;;;;;;17.17;13.10;;;14.40;99.90;;;;;;2094808;28;20115;-71
2023/09/07 04:42:42;;;;;;;18.73;13.73;;;14.40;99.90;;;;;;2086894;28;20479;-71
2023/09/07 04:43:43;;;;;;;18.60;13.95;;;14.30;99.90;;;;;;2091936;28;20025;-71
2023/09/07 04:44:44;;;;;;;16.92;13.32;;;14.30;99.90;;;;;;2082455;28;20033;-71
2023/09/07 04:45:47;;;;;;;16.55;13.57;;;14.30;99.90;;;;;;2085042;28;20070;-71
2023/09/07 04:46:48;;;;;;;18.48;13.10;;;14.30;99.90;;;;;;2092176;28;20108;-73
2023/09/07 04:47:50;;;;;;;17.95;13.98;;;14.30;99.90;;;;;;2088117;28;20054;-70
2023/09/07 04:48:51;;;;;;;19.00;13.07;;;14.40;99.90;;;;;;2083838;28;20094;-72
2023/09/07 04:49:52;;;;;;;17.27;13.35;;;14.40;99.90;;;;;;2092508;28;20068;-74
2023/09/07 04:51:03;;;;;;;20.00;13.32;;;14.40;99.90;;;;;;2083276;28;20543;-70
2023/09/07 04:52:04;;;;;;;19.48;13.77;;;14.40;99.90;;;;;;2072243;28;20034;-71
2023/09/07 04:53:05;;;;;;;19.77;13.52;;;14.40;99.90;;;;;;2088633;28;20032;-71
2023/09/07 04:54:05;;;;;;;20.30;13.93;;;14.40;99.90;;;;;;2093575;28;20017;-71
2023/09/07 04:55:06;;;;;;;16.33;13.50;;;14.40;99.90;;;;;;2092684;28;20572;-71
2023/09/07 04:56:08;;;;;;;22.17;13.50;;;14.40;99.90;;;;;;2091974;28;20035;-70
2023/09/07 04:57:09;;;;;;;18.02;13.70;;;14.40;99.90;;;;;;2095503;28;20039;-72
2023/09/07 04:58:10;;;;;;;19.83;13.70;;;14.40;99.90;;;;;;2094374;28;20082;-71
2023/09/07 04:59:10;;;;;;;17.55;13.45;;;14.40;99.90;;;;;;2084870;28;20589;-71
2023/09/07 05:00:11;;;;;;;19.08;13.38;;;14.40;99.90;;;;;;2093417;28;20813;-72
2023/09/07 05:01:12;;;;;;;16.75;13.70;;;14.50;99.90;;;;;;2080935;28;20084;-71
2023/09/07 05:02:14;;;;;;;19.35;13.85;;;14.50;99.90;;;;;;2084964;28;20391;-72
2023/09/07 05:03:14;;;;;;;16.88;13.43;;;14.50;99.90;;;;;;2079179;28;20014;-72
2023/09/07 05:04:15;;;;;;;18.35;13.02;;;14.60;99.90;;;;;;2078542;28;20247;-72
2023/09/07 05:05:16;;;;;;;16.75;12.85;;;14.60;99.90;;;;;;2083402;28;20024;-72
2023/09/07 05:06:16;;;;;;;17.48;13.20;;;14.70;99.90;;;;;;2085546;28;20036;-72
2023/09/07 05:07:17;;;;;;;18.30;13.18;;;14.70;99.90;;;;;;2091874;28;20139;-68
2023/09/07 05:08:18;;;;;;;18.10;12.77;;;14.80;99.90;;;;;;2090541;28;20036;-68
2023/09/07 05:09:20;;;;;;;16.30;12.48;;;15.00;99.90;;;;;;2083640;28;20491;-69
2023/09/07 05:10:20;;;;;;;18.65;12.57;;;15.20;99.90;;;;;;2083528;28;20447;-68
2023/09/07 05:11:21;;;;;;;18.35;11.68;;;15.40;99.90;;;;;;2079376;28;20071;-69